FVOT weather

Kotwa Airport
Mashonaland East Province, Zimbabwe

Public forecast

Using degrees Celsius for public forecast. Weather courtesy of forecast.io.

Closest aviation weather report (METAR) to Kotwa Airport

Closest report is Chingozi Airport, 76.8 nm (142.2 km) NE. Retrieved 2020/06/05 13:00 UTC (30 minutes ago):

FQTT 051300Z 08008KT 9999 SCT020 30/13 Q1018

Closest aviation forecast (TAF) to Kotwa Airport

Closest forecast is Chingozi Airport, 76.8 nm (142.2 km) NE. Retrieved 2020/06/05 12:00 UTC (1 hour ago):

TAF FQTT 051000Z 0512/0612 17010KT 9999 FEW020 TX30/0513Z TN19/0603Z BECMG 0518/0520 09008KT BECMG 0606/0608 17010KT